Hauptseite
METAR-TAF:

METAR-TAF

Flughäfen :

Flughafen Caen-Carpiquet

Caen, Frankreich

Breite: 49-11N, Länge: 000-27W, Höhe: 78 m

Beobachtung

Neuester Wetterbericht von vor 35 Minuten, um 15:00 UTC
Wind 4 kt aus Südwest, variierte zwischen Süd und Nord/Nordwest
Temperatur 26°C
Luftfeuchtigkeit 48%
Luftdruck 1015 hPa
Sichtweite 10 km oder mehr
keine Wolken unter 1500 m und keine Kumulonimbus oder Gewitterwolken

METAR: LFRK 271500Z AUTO 22004KT 170V330 CAVOK 26/14 Q1015 TEMPO 4000 TSRA BKN030CB

Zeit: 17:35 (15:35 UTC)


TAF: fehlend

Wetterbeobachtungen und Prognosen von mehr als 4000 Flughäfen (METAR und TAF Bericht).

Die verfügbaren Stationen werden durch gelbe und rote Markierungen auf der Karte dargestellt.

Führen Sie die Maus auf sie, um den Namen der Station zu sehen.

Darauf klicken, um die Beobachtung von Wetterbeobachtungen und Prognosen zu sehen.

Um die Karte zu ändern : klicken Sie auf den grünen Tasten mit einem schwarzen Kreuz Zum Vergrößern, auf den grünen Button mit einem Gedankenstrich zu verkleinern, oder auf die grünen Pfeile für benachbarte Karten.


METAR-TAF: